sensor_id;sensor_type;location;lat;lon;timestamp;P1;durP1;ratioP1;P2;durP2;ratioP2
26098;SDS011;13860;52.370;6.764;2023-02-28T00:00:43;9.45;;;4.18;;
26098;SDS011;13860;52.370;6.764;2023-02-28T00:03:49;9.77;;;4.13;;
26098;SDS011;13860;52.370;6.764;2023-02-28T00:06:54;10.77;;;3.88;;
26098;SDS011;13860;52.370;6.764;2023-02-28T00:10:00;8.40;;;3.95;;
26098;SDS011;13860;52.370;6.764;2023-02-28T00:13:06;7.95;;;3.65;;
26098;SDS011;13860;52.370;6.764;2023-02-28T00:16:13;10.02;;;4.07;;
26098;SDS011;13860;52.370;6.764;2023-02-28T00:19:19;10.27;;;4.35;;
26098;SDS011;13860;52.370;6.764;2023-02-28T00:22:25;6.75;;;3.33;;
26098;SDS011;13860;52.370;6.764;2023-02-28T00:25:29;8.50;;;3.22;;
26098;SDS011;13860;52.370;6.764;2023-02-28T00:28:37;8.73;;;3.92;;
26098;SDS011;13860;52.370;6.764;2023-02-28T00:31:41;8.00;;;3.45;;
26098;SDS011;13860;52.370;6.764;2023-02-28T00:34:47;10.98;;;3.40;;
26098;SDS011;13860;52.370;6.764;2023-02-28T00:37:51;7.05;;;2.80;;
26098;SDS011;13860;52.370;6.764;2023-02-28T00:40:57;5.75;;;2.88;;
26098;SDS011;13860;52.370;6.764;2023-02-28T00:44:07;5.13;;;2.63;;
26098;SDS011;13860;52.370;6.764;2023-02-28T00:47:13;5.97;;;3.03;;
26098;SDS011;13860;52.370;6.764;2023-02-28T00:50:17;8.90;;;3.13;;
26098;SDS011;13860;52.370;6.764;2023-02-28T00:53:24;8.20;;;3.30;;
26098;SDS011;13860;52.370;6.764;2023-02-28T00:56:28;5.82;;;2.58;;
26098;SDS011;13860;52.370;6.764;2023-02-28T00:59:36;5.45;;;2.92;;
26098;SDS011;13860;52.370;6.764;2023-02-28T01:02:40;8.60;;;3.17;;
26098;SDS011;13860;52.370;6.764;2023-02-28T01:05:46;5.07;;;3.17;;
26098;SDS011;13860;52.370;6.764;2023-02-28T01:08:51;9.27;;;3.45;;
26098;SDS011;13860;52.370;6.764;2023-02-28T01:11:57;10.07;;;3.30;;
26098;SDS011;13860;52.370;6.764;2023-02-28T01:15:03;5.93;;;3.00;;
26098;SDS011;13860;52.370;6.764;2023-02-28T01:18:10;7.50;;;3.85;;
26098;SDS011;13860;52.370;6.764;2023-02-28T01:21:15;10.55;;;3.28;;
26098;SDS011;13860;52.370;6.764;2023-02-28T01:24:22;12.57;;;3.03;;
26098;SDS011;13860;52.370;6.764;2023-02-28T01:27:26;6.07;;;2.92;;
26098;SDS011;13860;52.370;6.764;2023-02-28T01:30:34;6.15;;;3.38;;
26098;SDS011;13860;52.370;6.764;2023-02-28T01:33:39;10.68;;;3.50;;
26098;SDS011;13860;52.370;6.764;2023-02-28T01:36:45;7.85;;;3.50;;
26098;SDS011;13860;52.370;6.764;2023-02-28T01:39:49;6.53;;;3.15;;
26098;SDS011;13860;52.370;6.764;2023-02-28T01:42:56;8.95;;;3.28;;
26098;SDS011;13860;52.370;6.764;2023-02-28T01:46:02;9.48;;;3.22;;
26098;SDS011;13860;52.370;6.764;2023-02-28T01:49:09;7.68;;;3.40;;
26098;SDS011;13860;52.370;6.764;2023-02-28T01:52:16;7.35;;;3.10;;
26098;SDS011;13860;52.370;6.764;2023-02-28T01:55:23;9.65;;;2.80;;
26098;SDS011;13860;52.370;6.764;2023-02-28T01:58:32;4.03;;;2.78;;
26098;SDS011;13860;52.370;6.764;2023-02-28T02:01:41;4.15;;;2.75;;
26098;SDS011;13860;52.370;6.764;2023-02-28T02:04:46;6.45;;;3.17;;
26098;SDS011;13860;52.370;6.764;2023-02-28T02:08:01;10.65;;;3.33;;
26098;SDS011;13860;52.370;6.764;2023-02-28T02:11:07;3.70;;;3.08;;
26098;SDS011;13860;52.370;6.764;2023-02-28T02:14:25;10.30;;;3.28;;
26098;SDS011;13860;52.370;6.764;2023-02-28T02:17:49;7.22;;;3.67;;
26098;SDS011;13860;52.370;6.764;2023-02-28T02:21:07;4.88;;;3.03;;
26098;SDS011;13860;52.370;6.764;2023-02-28T02:35:34;9.65;;;3.90;;
26098;SDS011;13860;52.370;6.764;2023-02-28T02:38:44;12.73;;;3.85;;
26098;SDS011;13860;52.370;6.764;2023-02-28T02:41:56;12.02;;;4.47;;
26098;SDS011;13860;52.370;6.764;2023-02-28T02:45:09;8.20;;;4.07;;
26098;SDS011;13860;52.370;6.764;2023-02-28T02:48:17;8.80;;;4.13;;
26098;SDS011;13860;52.370;6.764;2023-02-28T02:51:26;11.50;;;3.67;;
26098;SDS011;13860;52.370;6.764;2023-02-28T02:54:34;7.50;;;3.95;;
26098;SDS011;13860;52.370;6.764;2023-02-28T02:57:42;6.78;;;4.13;;
26098;SDS011;13860;52.370;6.764;2023-02-28T03:00:52;9.40;;;4.70;;
26098;SDS011;13860;52.370;6.764;2023-02-28T03:04:01;9.25;;;3.80;;
26098;SDS011;13860;52.370;6.764;2023-02-28T03:07:13;8.10;;;3.58;;
26098;SDS011;13860;52.370;6.764;2023-02-28T03:10:27;9.55;;;4.03;;
26098;SDS011;13860;52.370;6.764;2023-02-28T03:13:44;8.57;;;4.50;;
26098;SDS011;13860;52.370;6.764;2023-02-28T03:20:47;8.90;;;5.00;;
26098;SDS011;13860;52.370;6.764;2023-02-28T03:24:04;10.48;;;4.38;;
26098;SDS011;13860;52.370;6.764;2023-02-28T03:27:15;8.70;;;3.85;;
26098;SDS011;13860;52.370;6.764;2023-02-28T03:30:25;9.40;;;3.95;;
26098;SDS011;13860;52.370;6.764;2023-02-28T03:33:39;10.02;;;4.28;;
26098;SDS011;13860;52.370;6.764;2023-02-28T03:36:51;9.00;;;4.25;;
26098;SDS011;13860;52.370;6.764;2023-02-28T03:40:03;15.82;;;4.88;;
26098;SDS011;13860;52.370;6.764;2023-02-28T03:43:14;6.20;;;3.17;;
26098;SDS011;13860;52.370;6.764;2023-02-28T03:46:27;14.27;;;4.80;;
26098;SDS011;13860;52.370;6.764;2023-02-28T03:49:36;11.05;;;4.22;;
26098;SDS011;13860;52.370;6.764;2023-02-28T03:52:48;7.63;;;4.40;;
26098;SDS011;13860;52.370;6.764;2023-02-28T03:55:59;14.52;;;4.55;;
26098;SDS011;13860;52.370;6.764;2023-02-28T03:59:12;9.00;;;4.00;;
26098;SDS011;13860;52.370;6.764;2023-02-28T04:02:19;9.73;;;4.47;;
26098;SDS011;13860;52.370;6.764;2023-02-28T04:05:25;7.90;;;4.18;;
26098;SDS011;13860;52.370;6.764;2023-02-28T04:08:30;10.07;;;4.32;;
26098;SDS011;13860;52.370;6.764;2023-02-28T04:11:39;8.18;;;4.55;;
26098;SDS011;13860;52.370;6.764;2023-02-28T04:14:44;14.55;;;4.93;;
26098;SDS011;13860;52.370;6.764;2023-02-28T04:17:50;8.50;;;4.07;;
26098;SDS011;13860;52.370;6.764;2023-02-28T04:20:54;7.72;;;3.95;;
26098;SDS011;13860;52.370;6.764;2023-02-28T04:24:00;8.82;;;4.53;;
26098;SDS011;13860;52.370;6.764;2023-02-28T04:27:07;7.55;;;4.47;;
26098;SDS011;13860;52.370;6.764;2023-02-28T04:30:14;9.32;;;4.57;;
26098;SDS011;13860;52.370;6.764;2023-02-28T04:33:18;9.20;;;4.35;;
26098;SDS011;13860;52.370;6.764;2023-02-28T04:36:24;12.93;;;4.57;;
26098;SDS011;13860;52.370;6.764;2023-02-28T04:39:28;9.07;;;4.45;;
26098;SDS011;13860;52.370;6.764;2023-02-28T04:42:36;8.25;;;4.47;;
26098;SDS011;13860;52.370;6.764;2023-02-28T04:45:40;9.15;;;4.03;;
26098;SDS011;13860;52.370;6.764;2023-02-28T04:48:46;10.77;;;4.65;;
26098;SDS011;13860;52.370;6.764;2023-02-28T04:51:50;11.32;;;4.30;;
26098;SDS011;13860;52.370;6.764;2023-02-28T04:54:56;9.50;;;4.57;;
26098;SDS011;13860;52.370;6.764;2023-02-28T04:58:03;7.85;;;4.10;;
26098;SDS011;13860;52.370;6.764;2023-02-28T05:01:18;8.10;;;4.32;;
26098;SDS011;13860;52.370;6.764;2023-02-28T05:04:24;7.53;;;4.28;;
26098;SDS011;13860;52.370;6.764;2023-02-28T05:07:30;13.18;;;4.63;;
26098;SDS011;13860;52.370;6.764;2023-02-28T05:10:34;7.15;;;4.28;;
26098;SDS011;13860;52.370;6.764;2023-02-28T05:13:42;17.17;;;4.30;;
26098;SDS011;13860;52.370;6.764;2023-02-28T05:16:46;9.73;;;4.43;;
26098;SDS011;13860;52.370;6.764;2023-02-28T05:19:51;6.78;;;4.35;;
26098;SDS011;13860;52.370;6.764;2023-02-28T05:23:08;10.68;;;4.25;;
26098;SDS011;13860;52.370;6.764;2023-02-28T05:26:15;7.45;;;4.82;;
26098;SDS011;13860;52.370;6.764;2023-02-28T05:29:21;11.18;;;4.60;;
26098;SDS011;13860;52.370;6.764;2023-02-28T05:32:27;13.65;;;3.88;;
26098;SDS011;13860;52.370;6.764;2023-02-28T05:35:31;9.77;;;4.38;;
26098;SDS011;13860;52.370;6.764;2023-02-28T05:38:37;9.40;;;4.13;;
26098;SDS011;13860;52.370;6.764;2023-02-28T05:41:42;8.27;;;4.18;;
26098;SDS011;13860;52.370;6.764;2023-02-28T05:44:50;10.15;;;3.97;;
26098;SDS011;13860;52.370;6.764;2023-02-28T05:47:55;6.90;;;3.80;;
26098;SDS011;13860;52.370;6.764;2023-02-28T05:51:01;11.35;;;4.75;;
26098;SDS011;13860;52.370;6.764;2023-02-28T05:54:06;10.15;;;3.80;;
26098;SDS011;13860;52.370;6.764;2023-02-28T05:57:14;7.25;;;4.25;;
26098;SDS011;13860;52.370;6.764;2023-02-28T06:00:27;16.10;;;5.63;;
26098;SDS011;13860;52.370;6.764;2023-02-28T06:03:33;11.35;;;4.75;;
26098;SDS011;13860;52.370;6.764;2023-02-28T06:06:37;6.88;;;3.60;;
26098;SDS011;13860;52.370;6.764;2023-02-28T06:09:43;9.32;;;5.00;;
26098;SDS011;13860;52.370;6.764;2023-02-28T06:12:47;10.63;;;4.65;;
26098;SDS011;13860;52.370;6.764;2023-02-28T06:15:55;7.88;;;4.68;;
26098;SDS011;13860;52.370;6.764;2023-02-28T06:19:00;9.57;;;4.32;;
26098;SDS011;13860;52.370;6.764;2023-02-28T06:22:08;15.02;;;4.72;;
26098;SDS011;13860;52.370;6.764;2023-02-28T06:25:12;7.28;;;4.50;;
26098;SDS011;13860;52.370;6.764;2023-02-28T06:28:18;7.70;;;4.40;;
26098;SDS011;13860;52.370;6.764;2023-02-28T06:31:24;8.65;;;4.55;;
26098;SDS011;13860;52.370;6.764;2023-02-28T06:34:32;14.57;;;4.50;;
26098;SDS011;13860;52.370;6.764;2023-02-28T06:37:36;10.65;;;4.57;;
26098;SDS011;13860;52.370;6.764;2023-02-28T06:40:44;11.80;;;4.68;;
26098;SDS011;13860;52.370;6.764;2023-02-28T06:43:55;14.48;;;4.57;;
26098;SDS011;13860;52.370;6.764;2023-02-28T06:47:03;6.75;;;4.25;;
26098;SDS011;13860;52.370;6.764;2023-02-28T06:50:09;12.35;;;4.97;;
26098;SDS011;13860;52.370;6.764;2023-02-28T06:53:17;10.77;;;5.47;;
26098;SDS011;13860;52.370;6.764;2023-02-28T06:56:21;9.00;;;4.60;;
26098;SDS011;13860;52.370;6.764;2023-02-28T06:59:27;16.80;;;5.00;;
26098;SDS011;13860;52.370;6.764;2023-02-28T07:02:33;9.98;;;4.50;;
26098;SDS011;13860;52.370;6.764;2023-02-28T07:05:40;11.80;;;4.95;;
26098;SDS011;13860;52.370;6.764;2023-02-28T07:08:44;12.45;;;5.55;;
26098;SDS011;13860;52.370;6.764;2023-02-28T07:11:50;9.27;;;5.15;;
26098;SDS011;13860;52.370;6.764;2023-02-28T07:14:54;7.93;;;4.85;;
26098;SDS011;13860;52.370;6.764;2023-02-28T07:18:03;11.38;;;5.00;;
26098;SDS011;13860;52.370;6.764;2023-02-28T07:21:08;10.88;;;5.03;;
26098;SDS011;13860;52.370;6.764;2023-02-28T07:24:15;12.40;;;4.63;;
26098;SDS011;13860;52.370;6.764;2023-02-28T07:27:19;12.30;;;5.40;;
26098;SDS011;13860;52.370;6.764;2023-02-28T07:30:28;9.93;;;4.85;;
26098;SDS011;13860;52.370;6.764;2023-02-28T07:36:40;7.82;;;4.65;;
26098;SDS011;13860;52.370;6.764;2023-02-28T07:39:44;10.07;;;5.35;;
26098;SDS011;13860;52.370;6.764;2023-02-28T07:42:50;9.93;;;4.38;;
26098;SDS011;13860;52.370;6.764;2023-02-28T07:45:54;15.05;;;4.22;;
26098;SDS011;13860;52.370;6.764;2023-02-28T07:49:02;8.07;;;4.15;;
26098;SDS011;13860;52.370;6.764;2023-02-28T07:52:06;7.70;;;3.33;;
26098;SDS011;13860;52.370;6.764;2023-02-28T07:55:15;8.20;;;3.10;;
26098;SDS011;13860;52.370;6.764;2023-02-28T07:58:19;7.75;;;2.30;;
26098;SDS011;13860;52.370;6.764;2023-02-28T08:01:25;3.60;;;2.40;;
26098;SDS011;13860;52.370;6.764;2023-02-28T08:04:33;4.03;;;2.83;;
26098;SDS011;13860;52.370;6.764;2023-02-28T08:07:39;5.65;;;2.53;;
26098;SDS011;13860;52.370;6.764;2023-02-28T08:13:49;3.35;;;1.80;;
26098;SDS011;13860;52.370;6.764;2023-02-28T08:16:53;3.72;;;1.30;;
26098;SDS011;13860;52.370;6.764;2023-02-28T08:20:01;4.05;;;1.55;;
26098;SDS011;13860;52.370;6.764;2023-02-28T08:23:05;5.28;;;1.70;;
26098;SDS011;13860;52.370;6.764;2023-02-28T08:26:11;7.25;;;2.28;;
26098;SDS011;13860;52.370;6.764;2023-02-28T08:29:15;3.65;;;2.05;;
26098;SDS011;13860;52.370;6.764;2023-02-28T08:32:21;3.05;;;1.45;;
26098;SDS011;13860;52.370;6.764;2023-02-28T08:35:32;3.78;;;1.60;;
26098;SDS011;13860;52.370;6.764;2023-02-28T08:38:41;5.00;;;1.27;;
26098;SDS011;13860;52.370;6.764;2023-02-28T08:41:45;10.95;;;1.55;;
26098;SDS011;13860;52.370;6.764;2023-02-28T08:45:01;5.22;;;1.50;;
26098;SDS011;13860;52.370;6.764;2023-02-28T08:48:06;1.70;;;1.30;;
26098;SDS011;13860;52.370;6.764;2023-02-28T08:51:14;2.90;;;1.23;;
26098;SDS011;13860;52.370;6.764;2023-02-28T08:54:23;4.25;;;1.48;;
26098;SDS011;13860;52.370;6.764;2023-02-28T08:57:29;4.32;;;1.60;;
26098;SDS011;13860;52.370;6.764;2023-02-28T09:00:33;1.30;;;1.02;;
26098;SDS011;13860;52.370;6.764;2023-02-28T09:03:40;2.40;;;1.20;;
26098;SDS011;13860;52.370;6.764;2023-02-28T09:06:47;2.50;;;1.27;;
26098;SDS011;13860;52.370;6.764;2023-02-28T09:09:53;4.07;;;1.27;;
26098;SDS011;13860;52.370;6.764;2023-02-28T09:12:58;1.65;;;1.25;;
26098;SDS011;13860;52.370;6.764;2023-02-28T09:16:06;1.88;;;1.00;;
26098;SDS011;13860;52.370;6.764;2023-02-28T09:19:11;1.33;;;1.23;;
26098;SDS011;13860;52.370;6.764;2023-02-28T09:22:19;1.67;;;1.23;;
26098;SDS011;13860;52.370;6.764;2023-02-28T09:25:23;3.45;;;1.50;;
26098;SDS011;13860;52.370;6.764;2023-02-28T09:28:29;1.25;;;1.00;;
26098;SDS011;13860;52.370;6.764;2023-02-28T09:31:33;0.98;;;0.90;;
26098;SDS011;13860;52.370;6.764;2023-02-28T09:34:39;2.20;;;1.73;;
26098;SDS011;13860;52.370;6.764;2023-02-28T09:40:53;1.52;;;1.00;;
26098;SDS011;13860;52.370;6.764;2023-02-28T09:44:02;3.05;;;1.00;;
26098;SDS011;13860;52.370;6.764;2023-02-28T09:47:14;1.20;;;1.10;;
26098;SDS011;13860;52.370;6.764;2023-02-28T09:50:29;1.45;;;0.80;;
26098;SDS011;13860;52.370;6.764;2023-02-28T09:53:41;3.35;;;1.13;;
26098;SDS011;13860;52.370;6.764;2023-02-28T09:56:52;1.17;;;0.90;;
26098;SDS011;13860;52.370;6.764;2023-02-28T10:00:06;1.85;;;1.10;;
26098;SDS011;13860;52.370;6.764;2023-02-28T10:03:24;1.50;;;1.00;;
26098;SDS011;13860;52.370;6.764;2023-02-28T10:06:35;1.88;;;1.17;;
26098;SDS011;13860;52.370;6.764;2023-02-28T10:09:46;3.80;;;1.58;;
26098;SDS011;13860;52.370;6.764;2023-02-28T10:12:57;3.67;;;1.20;;
26098;SDS011;13860;52.370;6.764;2023-02-28T10:16:08;3.08;;;1.73;;
26098;SDS011;13860;52.370;6.764;2023-02-28T10:19:19;3.13;;;1.42;;
26098;SDS011;13860;52.370;6.764;2023-02-28T10:22:27;1.58;;;1.02;;
26098;SDS011;13860;52.370;6.764;2023-02-28T10:25:42;1.67;;;1.08;;
26098;SDS011;13860;52.370;6.764;2023-02-28T10:28:49;9.07;;;1.15;;
26098;SDS011;13860;52.370;6.764;2023-02-28T10:31:58;1.23;;;1.00;;
26098;SDS011;13860;52.370;6.764;2023-02-28T10:35:07;2.50;;;1.08;;
26098;SDS011;13860;52.370;6.764;2023-02-28T10:38:21;3.42;;;1.17;;
26098;SDS011;13860;52.370;6.764;2023-02-28T10:41:28;1.58;;;1.20;;
26098;SDS011;13860;52.370;6.764;2023-02-28T10:44:37;2.05;;;0.95;;
26098;SDS011;13860;52.370;6.764;2023-02-28T10:47:48;2.92;;;1.25;;
26098;SDS011;13860;52.370;6.764;2023-02-28T10:51:01;3.17;;;1.40;;
26098;SDS011;13860;52.370;6.764;2023-02-28T10:54:13;1.92;;;1.10;;
26098;SDS011;13860;52.370;6.764;2023-02-28T10:57:28;5.47;;;2.20;;
26098;SDS011;13860;52.370;6.764;2023-02-28T11:00:35;3.60;;;1.33;;
26098;SDS011;13860;52.370;6.764;2023-02-28T11:03:41;3.20;;;1.30;;
26098;SDS011;13860;52.370;6.764;2023-02-28T11:09:51;1.67;;;1.20;;
26098;SDS011;13860;52.370;6.764;2023-02-28T11:12:58;2.55;;;1.58;;
26098;SDS011;13860;52.370;6.764;2023-02-28T11:16:05;3.33;;;1.60;;
26098;SDS011;13860;52.370;6.764;2023-02-28T11:19:16;2.42;;;1.30;;
26098;SDS011;13860;52.370;6.764;2023-02-28T11:22:27;3.33;;;1.40;;
26098;SDS011;13860;52.370;6.764;2023-02-28T11:25:37;5.57;;;1.50;;
26098;SDS011;13860;52.370;6.764;2023-02-28T11:28:46;5.95;;;1.42;;
26098;SDS011;13860;52.370;6.764;2023-02-28T11:32:11;4.00;;;1.30;;
26098;SDS011;13860;52.370;6.764;2023-02-28T11:35:23;2.88;;;1.25;;
26098;SDS011;13860;52.370;6.764;2023-02-28T11:38:31;2.60;;;1.35;;
26098;SDS011;13860;52.370;6.764;2023-02-28T11:41:46;2.22;;;1.17;;
26098;SDS011;13860;52.370;6.764;2023-02-28T11:45:11;2.00;;;1.00;;
26098;SDS011;13860;52.370;6.764;2023-02-28T11:48:27;2.20;;;1.25;;
26098;SDS011;13860;52.370;6.764;2023-02-28T11:51:41;2.13;;;1.30;;
26098;SDS011;13860;52.370;6.764;2023-02-28T11:58:14;2.95;;;1.50;;
26098;SDS011;13860;52.370;6.764;2023-02-28T12:01:45;1.40;;;1.17;;
26098;SDS011;13860;52.370;6.764;2023-02-28T12:05:10;2.15;;;1.30;;
26098;SDS011;13860;52.370;6.764;2023-02-28T12:08:27;2.47;;;1.27;;
26098;SDS011;13860;52.370;6.764;2023-02-28T12:11:46;2.00;;;1.20;;
26098;SDS011;13860;52.370;6.764;2023-02-28T12:15:13;3.33;;;1.33;;
26098;SDS011;13860;52.370;6.764;2023-02-28T12:18:33;1.55;;;1.35;;
26098;SDS011;13860;52.370;6.764;2023-02-28T12:22:06;1.65;;;1.30;;
26098;SDS011;13860;52.370;6.764;2023-02-28T12:28:54;1.65;;;1.10;;
26098;SDS011;13860;52.370;6.764;2023-02-28T12:32:04;2.75;;;1.05;;
26098;SDS011;13860;52.370;6.764;2023-02-28T12:35:16;3.28;;;1.42;;
26098;SDS011;13860;52.370;6.764;2023-02-28T12:38:25;1.98;;;1.10;;
26098;SDS011;13860;52.370;6.764;2023-02-28T12:41:36;3.15;;;1.45;;
26098;SDS011;13860;52.370;6.764;2023-02-28T12:44:44;2.47;;;1.25;;
26098;SDS011;13860;52.370;6.764;2023-02-28T12:47:55;2.58;;;1.50;;
26098;SDS011;13860;52.370;6.764;2023-02-28T12:51:06;1.15;;;0.90;;
26098;SDS011;13860;52.370;6.764;2023-02-28T12:54:14;1.20;;;1.10;;
26098;SDS011;13860;52.370;6.764;2023-02-28T12:57:27;2.58;;;1.17;;
26098;SDS011;13860;52.370;6.764;2023-02-28T13:00:44;1.88;;;1.10;;
26098;SDS011;13860;52.370;6.764;2023-02-28T13:04:07;4.13;;;1.30;;
26098;SDS011;13860;52.370;6.764;2023-02-28T13:07:40;1.10;;;1.00;;
26098;SDS011;13860;52.370;6.764;2023-02-28T13:11:22;1.65;;;1.30;;
26098;SDS011;13860;52.370;6.764;2023-02-28T13:14:35;2.97;;;1.75;;
26098;SDS011;13860;52.370;6.764;2023-02-28T13:17:40;2.80;;;1.20;;
26098;SDS011;13860;52.370;6.764;2023-02-28T13:20:47;3.83;;;1.10;;
26098;SDS011;13860;52.370;6.764;2023-02-28T13:23:58;1.40;;;1.00;;
26098;SDS011;13860;52.370;6.764;2023-02-28T13:27:20;1.58;;;1.30;;
26098;SDS011;13860;52.370;6.764;2023-02-28T13:34:15;2.50;;;1.40;;
26098;SDS011;13860;52.370;6.764;2023-02-28T13:37:33;2.15;;;1.20;;
26098;SDS011;13860;52.370;6.764;2023-02-28T13:40:45;1.10;;;0.88;;
26098;SDS011;13860;52.370;6.764;2023-02-28T13:44:02;1.52;;;1.20;;
26098;SDS011;13860;52.370;6.764;2023-02-28T13:47:19;4.82;;;2.35;;
26098;SDS011;13860;52.370;6.764;2023-02-28T13:50:34;4.55;;;1.52;;
26098;SDS011;13860;52.370;6.764;2023-02-28T13:53:54;1.42;;;1.27;;
26098;SDS011;13860;52.370;6.764;2023-02-28T13:57:10;3.97;;;2.03;;
26098;SDS011;13860;52.370;6.764;2023-02-28T14:00:28;2.95;;;1.50;;
26098;SDS011;13860;52.370;6.764;2023-02-28T14:03:51;3.35;;;1.80;;
26098;SDS011;13860;52.370;6.764;2023-02-28T14:07:08;3.30;;;1.42;;
26098;SDS011;13860;52.370;6.764;2023-02-28T14:10:24;1.60;;;1.13;;
26098;SDS011;13860;52.370;6.764;2023-02-28T14:13:39;2.28;;;1.40;;
26098;SDS011;13860;52.370;6.764;2023-02-28T14:16:48;3.30;;;1.65;;
26098;SDS011;13860;52.370;6.764;2023-02-28T14:19:56;2.45;;;1.40;;
26098;SDS011;13860;52.370;6.764;2023-02-28T14:23:03;3.78;;;1.98;;
26098;SDS011;13860;52.370;6.764;2023-02-28T14:26:18;1.30;;;1.13;;
26098;SDS011;13860;52.370;6.764;2023-02-28T14:36:57;2.08;;;1.45;;
26098;SDS011;13860;52.370;6.764;2023-02-28T14:40:11;2.47;;;1.20;;
26098;SDS011;13860;52.370;6.764;2023-02-28T14:43:19;1.55;;;1.23;;
26098;SDS011;13860;52.370;6.764;2023-02-28T14:46:27;1.83;;;1.48;;
26098;SDS011;13860;52.370;6.764;2023-02-28T14:49:41;4.65;;;2.22;;
26098;SDS011;13860;52.370;6.764;2023-02-28T14:52:52;1.90;;;1.33;;
26098;SDS011;13860;52.370;6.764;2023-02-28T14:55:57;2.28;;;1.30;;
26098;SDS011;13860;52.370;6.764;2023-02-28T14:59:03;17.30;;;4.57;;
26098;SDS011;13860;52.370;6.764;2023-02-28T15:02:19;2.15;;;1.35;;
26098;SDS011;13860;52.370;6.764;2023-02-28T15:05:29;2.60;;;1.30;;
26098;SDS011;13860;52.370;6.764;2023-02-28T15:08:34;2.47;;;1.73;;
26098;SDS011;13860;52.370;6.764;2023-02-28T15:11:40;2.70;;;1.45;;
26098;SDS011;13860;52.370;6.764;2023-02-28T15:14:48;1.40;;;1.27;;
26098;SDS011;13860;52.370;6.764;2023-02-28T15:17:56;2.25;;;1.42;;
26098;SDS011;13860;52.370;6.764;2023-02-28T15:21:04;2.15;;;1.52;;
26098;SDS011;13860;52.370;6.764;2023-02-28T15:24:13;2.53;;;1.50;;
26098;SDS011;13860;52.370;6.764;2023-02-28T15:27:25;2.50;;;1.30;;
26098;SDS011;13860;52.370;6.764;2023-02-28T15:30:35;1.77;;;1.30;;
26098;SDS011;13860;52.370;6.764;2023-02-28T15:33:39;1.73;;;1.25;;
26098;SDS011;13860;52.370;6.764;2023-02-28T15:36:59;1.73;;;1.42;;
26098;SDS011;13860;52.370;6.764;2023-02-28T15:40:05;4.15;;;1.40;;
26098;SDS011;13860;52.370;6.764;2023-02-28T15:43:24;2.58;;;1.40;;
26098;SDS011;13860;52.370;6.764;2023-02-28T15:46:29;4.85;;;1.42;;
26098;SDS011;13860;52.370;6.764;2023-02-28T15:49:37;4.00;;;1.38;;
26098;SDS011;13860;52.370;6.764;2023-02-28T15:52:49;2.30;;;1.50;;
26098;SDS011;13860;52.370;6.764;2023-02-28T15:55:58;4.00;;;1.45;;
26098;SDS011;13860;52.370;6.764;2023-02-28T15:59:05;1.63;;;1.40;;
26098;SDS011;13860;52.370;6.764;2023-02-28T16:02:16;1.38;;;1.17;;
26098;SDS011;13860;52.370;6.764;2023-02-28T16:05:23;4.53;;;1.48;;
26098;SDS011;13860;52.370;6.764;2023-02-28T16:08:39;5.15;;;1.20;;
26098;SDS011;13860;52.370;6.764;2023-02-28T16:11:44;1.45;;;1.25;;
26098;SDS011;13860;52.370;6.764;2023-02-28T16:14:52;2.60;;;1.40;;
26098;SDS011;13860;52.370;6.764;2023-02-28T16:17:57;4.55;;;1.33;;
26098;SDS011;13860;52.370;6.764;2023-02-28T16:21:03;4.45;;;1.80;;
26098;SDS011;13860;52.370;6.764;2023-02-28T16:24:12;3.97;;;1.70;;
26098;SDS011;13860;52.370;6.764;2023-02-28T16:27:20;8.32;;;1.67;;
26098;SDS011;13860;52.370;6.764;2023-02-28T16:30:26;3.83;;;1.60;;
26098;SDS011;13860;52.370;6.764;2023-02-28T16:33:34;2.15;;;1.50;;
26098;SDS011;13860;52.370;6.764;2023-02-28T16:36:38;3.95;;;1.60;;
26098;SDS011;13860;52.370;6.764;2023-02-28T16:39:46;3.15;;;1.80;;
26098;SDS011;13860;52.370;6.764;2023-02-28T16:42:53;2.90;;;2.00;;
26098;SDS011;13860;52.370;6.764;2023-02-28T16:46:04;3.00;;;1.95;;
26098;SDS011;13860;52.370;6.764;2023-02-28T16:49:09;4.45;;;1.65;;
26098;SDS011;13860;52.370;6.764;2023-02-28T16:52:19;2.42;;;1.80;;
26098;SDS011;13860;52.370;6.764;2023-02-28T16:55:27;2.13;;;1.75;;
26098;SDS011;13860;52.370;6.764;2023-02-28T16:58:33;2.35;;;1.85;;
26098;SDS011;13860;52.370;6.764;2023-02-28T17:01:38;2.08;;;1.40;;
26098;SDS011;13860;52.370;6.764;2023-02-28T17:04:45;2.58;;;1.50;;
26098;SDS011;13860;52.370;6.764;2023-02-28T17:07:49;8.45;;;3.20;;
26098;SDS011;13860;52.370;6.764;2023-02-28T17:10:58;11.00;;;4.40;;
26098;SDS011;13860;52.370;6.764;2023-02-28T17:14:06;7.32;;;3.35;;
26098;SDS011;13860;52.370;6.764;2023-02-28T17:17:15;2.83;;;1.83;;
26098;SDS011;13860;52.370;6.764;2023-02-28T17:20:26;5.50;;;2.53;;
26098;SDS011;13860;52.370;6.764;2023-02-28T17:23:32;4.05;;;2.30;;
26098;SDS011;13860;52.370;6.764;2023-02-28T17:26:41;4.50;;;2.20;;
26098;SDS011;13860;52.370;6.764;2023-02-28T17:29:47;9.25;;;3.88;;
26098;SDS011;13860;52.370;6.764;2023-02-28T17:32:51;15.05;;;4.40;;
26098;SDS011;13860;52.370;6.764;2023-02-28T17:35:58;12.05;;;4.88;;
26098;SDS011;13860;52.370;6.764;2023-02-28T17:39:03;10.63;;;5.97;;
26098;SDS011;13860;52.370;6.764;2023-02-28T17:42:15;7.10;;;3.95;;
26098;SDS011;13860;52.370;6.764;2023-02-28T17:45:21;4.35;;;2.63;;
26098;SDS011;13860;52.370;6.764;2023-02-28T17:48:27;6.57;;;3.00;;
26098;SDS011;13860;52.370;6.764;2023-02-28T17:51:32;9.40;;;4.55;;
26098;SDS011;13860;52.370;6.764;2023-02-28T17:54:38;14.85;;;7.05;;
26098;SDS011;13860;52.370;6.764;2023-02-28T17:57:46;18.10;;;9.20;;
26098;SDS011;13860;52.370;6.764;2023-02-28T18:00:52;14.90;;;8.27;;
26098;SDS011;13860;52.370;6.764;2023-02-28T18:03:57;10.57;;;5.75;;
26098;SDS011;13860;52.370;6.764;2023-02-28T18:07:03;13.48;;;5.88;;
26098;SDS011;13860;52.370;6.764;2023-02-28T18:10:11;11.55;;;6.05;;
26098;SDS011;13860;52.370;6.764;2023-02-28T18:13:24;12.55;;;5.95;;
26098;SDS011;13860;52.370;6.764;2023-02-28T18:16:29;15.52;;;6.50;;
26098;SDS011;13860;52.370;6.764;2023-02-28T18:19:38;15.13;;;6.68;;
26098;SDS011;13860;52.370;6.764;2023-02-28T18:22:42;14.10;;;7.65;;
26098;SDS011;13860;52.370;6.764;2023-02-28T18:25:49;13.10;;;5.75;;
26098;SDS011;13860;52.370;6.764;2023-02-28T18:28:56;9.30;;;4.93;;
26098;SDS011;13860;52.370;6.764;2023-02-28T18:32:02;9.27;;;4.82;;
26098;SDS011;13860;52.370;6.764;2023-02-28T18:35:07;10.98;;;5.28;;
26098;SDS011;13860;52.370;6.764;2023-02-28T18:38:14;25.02;;;7.53;;
26098;SDS011;13860;52.370;6.764;2023-02-28T18:41:22;12.98;;;5.82;;
26098;SDS011;13860;52.370;6.764;2023-02-28T18:44:33;9.40;;;5.18;;
26098;SDS011;13860;52.370;6.764;2023-02-28T18:47:37;7.75;;;4.03;;
26098;SDS011;13860;52.370;6.764;2023-02-28T18:50:43;7.20;;;3.40;;
26098;SDS011;13860;52.370;6.764;2023-02-28T18:56:52;6.20;;;2.95;;
26098;SDS011;13860;52.370;6.764;2023-02-28T18:59:58;10.57;;;4.07;;
26098;SDS011;13860;52.370;6.764;2023-02-28T19:03:08;8.13;;;5.43;;
26098;SDS011;13860;52.370;6.764;2023-02-28T19:06:13;13.60;;;5.82;;
26098;SDS011;13860;52.370;6.764;2023-02-28T19:09:20;12.90;;;5.88;;
26098;SDS011;13860;52.370;6.764;2023-02-28T19:12:24;11.43;;;4.93;;
26098;SDS011;13860;52.370;6.764;2023-02-28T19:15:34;8.85;;;5.35;;
26098;SDS011;13860;52.370;6.764;2023-02-28T19:18:38;9.55;;;5.47;;
26098;SDS011;13860;52.370;6.764;2023-02-28T19:21:45;17.27;;;6.10;;
26098;SDS011;13860;52.370;6.764;2023-02-28T19:24:49;17.83;;;7.97;;
26098;SDS011;13860;52.370;6.764;2023-02-28T19:27:56;16.42;;;8.73;;
26098;SDS011;13860;52.370;6.764;2023-02-28T19:31:02;24.25;;;11.52;;
26098;SDS011;13860;52.370;6.764;2023-02-28T19:34:08;18.75;;;9.85;;
26098;SDS011;13860;52.370;6.764;2023-02-28T19:37:13;17.83;;;9.40;;
26098;SDS011;13860;52.370;6.764;2023-02-28T19:40:19;20.42;;;9.38;;
26098;SDS011;13860;52.370;6.764;2023-02-28T19:43:23;30.85;;;12.40;;